Pagina principală
METAR-TAF:

METAR-TAF

Aeroporturi :

Vârșeț, Serbia

Latitudine: 45-09N, longitudine: 021-19E, elevație: 83 m

Observații meteo curente

Raportul a fost făcut în urmă cu 31 de minute, la 06:30 UTC
Vânt 3 kt de la Sud/Sud-vest, variabil între Sud/Sud-est și Sud-vest
Temperatură 21°C
Umiditate 78%
Presiune 1013 hPa
Vizibilitate de 10 km sau mai mult
Nori puțini la o înălțime de 1600 picior

METAR: LYVR 160630Z 20003KT 160V230 9999 FEW016 21/17 Q1013 NOSIG

Ora: 09:01 (07:01 UTC)

Prognoză

Raportul a fost făcut în urmă cu 2 ore și 1 de minute, la 05:00 UTC
Prognoză valabilă de la 16 ora 06 UTC la 17 ora 06 UTC
Vânt 3 kt de la Vest/Sud-vest
Vizibilitate de 10 km sau mai mult
nu există nori sub 1.500 m și nici cumulonimbus
Temporar
de la 16 ora 09 UTC la 16 ora 17 UTC
Vânt 13 kt de la Vest/Nord-vest

TAF: LYVR 160500Z 1606/1706 24003KT CAVOK TX30/1613Z TN18/1703Z TEMPO 1609/1617 30013KT

Observații și prognoze meteo pentru peste 4.000 de aeroporturi (rapoarte METAR și TAF).

Stațiile disponibile sunt reprezentate pe hartă prin puncte galbene și roșii.

Țineți indicatorul mouse-ului pe punctul dorit pentru a vedea denumirea stației.

Apoi, faceți clic pentru a vedea observațiile și prognozele meteorologice.

Pentru a schimba harta: Pentru mărire, faceți clic pe butoanele verzi cu cruce neagră; pentru micșorare, pe butonul verde cu o liniuță; pentru hărți învecinate, pe săgețile verzi.


METAR-TAF: